createdAt,value
2018-03-17T00:01:29.662Z,100830.73
2018-03-17T00:03:55.493Z,100830.91
2018-03-17T00:06:21.317Z,100825.68
2018-03-17T00:08:47.152Z,100830.91
2018-03-17T00:11:12.990Z,100832.70
2018-03-17T00:13:39.774Z,100835.12
2018-03-17T00:16:05.632Z,100828.62
2018-03-17T00:18:31.491Z,100824.81
2018-03-17T00:20:58.182Z,100822.45
2018-03-17T00:23:24.861Z,100828.99
2018-03-17T00:25:51.690Z,100842.12
2018-03-17T00:28:18.382Z,100823.16
2018-03-17T00:30:45.112Z,100818.52
2018-03-17T00:33:10.972Z,100822.86
2018-03-17T00:35:36.866Z,100829.05
2018-03-17T00:38:03.696Z,100826.38
2018-03-17T00:40:29.559Z,100830.32
2018-03-17T00:42:56.224Z,100828.03
2018-03-17T00:45:22.094Z,100829.91
2018-03-17T00:47:48.772Z,100829.69
2018-03-17T00:50:14.630Z,100825.88
2018-03-17T00:52:40.458Z,100824.45
2018-03-17T00:55:06.287Z,100818.89
2018-03-17T00:57:33.050Z,100826.79
2018-03-17T00:59:58.883Z,100826.39
2018-03-17T01:02:24.712Z,100824.61
2018-03-17T01:04:50.594Z,100815.98
2018-03-17T01:07:16.469Z,100819.30
2018-03-17T01:09:42.294Z,100825.89
2018-03-17T01:12:09.096Z,100829.52
2018-03-17T01:14:34.941Z,100838.66
2018-03-17T01:17:01.794Z,100816.52
2018-03-17T01:19:28.462Z,100827.13
2018-03-17T01:21:54.327Z,100828.99
2018-03-17T01:24:21.070Z,100818.65
2018-03-17T01:26:46.924Z,100820.03
2018-03-17T01:29:13.629Z,100818.23
2018-03-17T01:31:40.236Z,100819.56
2018-03-17T01:34:06.053Z,100819.30
2018-03-17T01:36:32.672Z,100820.62
2018-03-17T01:38:59.422Z,100816.25
2018-03-17T01:41:25.295Z,100815.36
2018-03-17T01:43:51.115Z,100809.06
2018-03-17T01:46:17.963Z,100820.63
2018-03-17T01:48:44.726Z,100812.04
2018-03-17T01:51:11.522Z,100812.80
2018-03-17T01:53:38.229Z,100814.19
2018-03-17T01:56:04.959Z,100816.37
2018-03-17T01:58:31.780Z,100811.43
2018-03-17T02:00:58.622Z,100819.90
2018-03-17T02:03:25.455Z,100814.42
2018-03-17T02:05:52.214Z,100808.40
2018-03-17T02:08:18.088Z,100806.08
2018-03-17T02:10:43.938Z,100801.28
2018-03-17T02:13:09.805Z,100806.85
2018-03-17T02:15:35.674Z,100815.67
2018-03-17T02:18:01.499Z,100818.47
2018-03-17T02:20:27.440Z,100816.90
2018-03-17T02:22:53.311Z,100813.20
2018-03-17T02:25:19.176Z,100821.58
2018-03-17T02:27:44.994Z,100808.84
2018-03-17T02:30:10.908Z,100817.34
2018-03-17T02:32:36.740Z,100823.61
2018-03-17T02:35:02.590Z,100827.59
2018-03-17T02:37:28.455Z,100833.11
2018-03-17T02:39:54.281Z,100833.31
2018-03-17T02:42:20.142Z,100831.38
2018-03-17T02:44:45.974Z,100839.78
2018-03-17T02:47:11.814Z,100843.31
2018-03-17T02:49:37.663Z,100853.44
2018-03-17T02:52:03.514Z,100851.19
2018-03-17T02:54:29.339Z,100852.48
2018-03-17T02:56:55.246Z,100853.59
2018-03-17T02:59:21.867Z,100858.73
2018-03-17T03:01:47.693Z,100853.08
2018-03-17T03:04:13.536Z,100863.64
2018-03-17T03:06:39.414Z,100852.52
2018-03-17T03:09:05.225Z,100860.18
2018-03-17T03:11:31.046Z,100858.03
2018-03-17T03:13:56.867Z,100863.33
2018-03-17T03:16:22.727Z,100858.59
2018-03-17T03:18:48.562Z,100869.37
2018-03-17T03:21:14.424Z,100858.03
2018-03-17T03:23:40.251Z,100859.46
2018-03-17T03:26:06.086Z,100869.16
2018-03-17T03:28:31.911Z,100869.33
2018-03-17T03:30:57.732Z,100872.69
2018-03-17T03:33:23.555Z,100865.00
2018-03-17T03:35:49.382Z,100868.17
2018-03-17T03:38:15.205Z,100861.77
2018-03-17T03:40:41.030Z,100863.16
2018-03-17T03:43:06.859Z,100870.33
2018-03-17T03:45:32.686Z,100867.98
2018-03-17T03:47:58.515Z,100873.08
2018-03-17T03:50:24.336Z,100863.20
2018-03-17T03:52:50.155Z,100872.38
2018-03-17T03:55:15.986Z,100863.55
2018-03-17T03:57:41.825Z,100867.21
2018-03-17T04:00:07.647Z,100864.77
2018-03-17T04:02:33.478Z,100857.20
2018-03-17T04:04:59.307Z,100880.17
2018-03-17T04:07:25.122Z,100874.59
2018-03-17T04:09:50.944Z,100879.94
2018-03-17T04:12:16.789Z,100881.87
2018-03-17T04:14:42.628Z,100868.03
2018-03-17T04:17:08.462Z,100877.41
2018-03-17T04:19:34.294Z,100884.52
2018-03-17T04:22:00.139Z,100883.69
2018-03-17T04:24:25.982Z,100886.92
2018-03-17T04:26:51.885Z,100877.29
2018-03-17T04:29:17.718Z,100891.64
2018-03-17T04:31:43.575Z,100888.13
2018-03-17T04:34:09.437Z,100894.61
2018-03-17T04:36:35.303Z,100888.63
2018-03-17T04:39:01.134Z,100890.66
2018-03-17T04:41:26.973Z,100901.13
2018-03-17T04:43:52.802Z,100896.84
2018-03-17T04:46:18.625Z,100895.88
2018-03-17T04:48:44.454Z,100909.16
2018-03-17T04:51:10.310Z,100906.94
2018-03-17T04:53:36.139Z,100903.42
2018-03-17T04:56:01.998Z,100899.49
2018-03-17T04:58:27.840Z,100889.95
2018-03-17T05:00:53.672Z,100902.45
2018-03-17T05:03:19.534Z,100888.63
2018-03-17T05:05:45.375Z,100890.38
2018-03-17T05:08:11.277Z,100885.36
2018-03-17T05:10:37.109Z,100889.67
2018-03-17T05:13:02.939Z,100905.80
2018-03-17T05:15:28.770Z,100903.42
2018-03-17T05:17:54.588Z,100895.34
2018-03-17T05:20:20.428Z,100900.98
2018-03-17T05:22:46.254Z,100903.59
2018-03-17T05:25:12.120Z,100901.05
2018-03-17T05:27:38.923Z,100904.02
2018-03-17T05:30:04.795Z,100898.56
2018-03-17T05:32:30.615Z,100902.48
2018-03-17T05:34:56.482Z,100907.73
2018-03-17T05:37:22.328Z,100907.22
2018-03-17T05:39:48.210Z,100911.53
2018-03-17T05:42:14.043Z,100908.34
2018-03-17T05:44:39.870Z,100913.06
2018-03-17T05:47:05.712Z,100926.00
2018-03-17T05:49:31.575Z,100909.05
2018-03-17T05:51:57.398Z,100929.72
2018-03-17T05:54:23.223Z,100919.59
2018-03-17T05:56:49.045Z,100920.06
2018-03-17T05:59:14.863Z,100926.52
2018-03-17T06:01:40.694Z,100928.94
2018-03-17T06:04:06.557Z,100940.14
2018-03-17T06:06:32.431Z,100950.53
2018-03-17T06:08:58.270Z,100949.80
2018-03-17T06:11:24.109Z,100948.06
2018-03-17T06:13:50.804Z,100953.29
2018-03-17T06:16:16.680Z,100963.07
2018-03-17T06:18:42.539Z,100969.73
2018-03-17T06:21:08.367Z,100975.63
2018-03-17T06:23:34.210Z,100973.30
2018-03-17T06:26:00.036Z,100974.61
2018-03-17T06:28:25.878Z,100976.47
2018-03-17T06:30:51.727Z,100968.23
2018-03-17T06:33:17.543Z,100967.89
2018-03-17T06:35:43.359Z,100963.83
2018-03-17T06:38:09.187Z,100975.00
2018-03-17T06:40:35.130Z,100965.20
2018-03-17T06:43:00.971Z,100986.75
2018-03-17T06:45:26.801Z,100976.73
2018-03-17T06:47:52.641Z,100980.66
2018-03-17T06:50:18.518Z,100980.77
2018-03-17T06:52:44.372Z,100970.87
2018-03-17T06:55:10.250Z,101004.42
2018-03-17T06:57:36.058Z,100993.52
2018-03-17T07:00:01.872Z,100990.42
2018-03-17T07:02:27.692Z,100991.85
2018-03-17T07:04:53.545Z,100982.07
2018-03-17T07:07:19.383Z,100996.41
2018-03-17T07:09:45.214Z,100986.48
2018-03-17T07:12:11.054Z,100975.52
2018-03-17T07:14:36.908Z,100990.78
2018-03-17T07:17:02.763Z,100986.75
2018-03-17T07:19:28.609Z,100996.39
2018-03-17T07:21:54.449Z,100990.95
2018-03-17T07:24:20.278Z,100972.90
2018-03-17T07:26:46.110Z,100992.73
2018-03-17T07:29:11.983Z,100994.67
2018-03-17T07:31:37.803Z,100992.16
2018-03-17T07:34:03.626Z,100990.12
2018-03-17T07:36:29.455Z,101006.17
2018-03-17T07:38:55.330Z,100987.59
2018-03-17T07:41:21.190Z,100985.19
2018-03-17T07:43:47.025Z,100984.02
2018-03-17T07:46:12.848Z,100967.98
2018-03-17T07:48:38.840Z,100983.55
2018-03-17T07:51:04.672Z,100979.30
2018-03-17T07:53:34.547Z,100988.22
2018-03-17T07:56:00.408Z,100986.36
2018-03-17T07:58:26.240Z,100985.02
2018-03-17T08:00:52.120Z,100982.61
2018-03-17T08:03:18.005Z,100989.41
2018-03-17T08:05:43.920Z,100994.68
2018-03-17T08:08:09.743Z,100991.25
2018-03-17T08:10:35.612Z,100980.82
2018-03-17T08:13:01.455Z,100987.12
2018-03-17T08:15:27.324Z,100985.82
2018-03-17T08:17:53.162Z,100968.41
2018-03-17T08:20:19.035Z,100986.66
2018-03-17T08:22:45.893Z,100980.30
2018-03-17T08:25:11.723Z,100981.51
2018-03-17T08:27:37.560Z,100982.86
2018-03-17T08:30:03.446Z,100983.02
2018-03-17T08:32:29.311Z,100981.17
2018-03-17T08:34:55.175Z,100983.23
2018-03-17T08:37:20.996Z,100979.82
2018-03-17T08:39:46.823Z,100978.02
2018-03-17T08:42:12.646Z,100975.88
2018-03-17T08:44:38.460Z,100979.86
2018-03-17T08:47:04.316Z,100981.91
2018-03-17T08:49:30.185Z,100983.91
2018-03-17T08:51:56.007Z,100982.48
2018-03-17T08:54:21.855Z,100981.50
2018-03-17T08:56:47.674Z,100969.00
2018-03-17T08:59:13.546Z,100975.08
2018-03-17T09:01:39.362Z,100966.53
2018-03-17T09:04:05.183Z,100964.56
2018-03-17T09:06:31.011Z,100972.19
2018-03-17T09:08:56.834Z,100959.45
2018-03-17T09:11:22.655Z,100965.30
2018-03-17T09:13:48.487Z,100973.66
2018-03-17T09:16:14.313Z,100956.52
2018-03-17T09:18:40.175Z,100958.22
2018-03-17T09:21:06.039Z,100960.66
2018-03-17T09:23:31.870Z,100964.52
2018-03-17T09:25:57.703Z,100968.39
2018-03-17T09:28:23.528Z,100962.48
2018-03-17T09:30:49.344Z,100949.98
2018-03-17T09:33:15.178Z,100970.62
2018-03-17T09:35:41.002Z,100954.28
2018-03-17T09:38:06.822Z,100961.41
2018-03-17T09:40:32.638Z,100942.30
2018-03-17T09:42:58.467Z,100965.09
2018-03-17T09:45:24.319Z,100947.05
2018-03-17T09:47:50.153Z,100958.54
2018-03-17T09:50:15.986Z,100955.53
2018-03-17T09:52:41.812Z,100946.46
2018-03-17T09:55:07.678Z,100943.97
2018-03-17T09:57:33.510Z,100950.63
2018-03-17T09:59:59.341Z,100945.92
2018-03-17T10:02:25.210Z,100950.38
2018-03-17T10:04:51.038Z,100947.29
2018-03-17T10:07:16.895Z,100958.16
2018-03-17T10:09:42.720Z,100955.12
2018-03-17T10:12:08.549Z,100953.90
2018-03-17T10:14:34.406Z,100953.68
2018-03-17T10:17:00.230Z,100951.41
2018-03-17T10:19:26.051Z,100946.66
2018-03-17T10:21:51.870Z,100948.78
2018-03-17T10:24:17.692Z,100932.56
2018-03-17T10:26:43.539Z,100944.72
2018-03-17T10:29:09.387Z,100923.68
2018-03-17T10:31:35.259Z,100934.82
2018-03-17T10:34:01.090Z,100929.52
2018-03-17T10:36:26.919Z,100921.71
2018-03-17T10:38:52.743Z,100928.91
2018-03-17T10:41:18.575Z,100942.22
2018-03-17T10:43:44.417Z,100918.55
2018-03-17T10:46:10.256Z,100927.76
2018-03-17T10:48:36.095Z,100924.81
2018-03-17T10:51:02.036Z,100921.45
2018-03-17T10:53:27.900Z,100921.33
2018-03-17T10:55:53.760Z,100918.18
2018-03-17T10:58:19.603Z,100918.50
2018-03-17T11:00:46.280Z,100923.02
2018-03-17T11:03:12.120Z,100932.55
2018-03-17T11:05:37.960Z,100922.77
2018-03-17T11:08:03.803Z,100923.06
2018-03-17T11:10:29.655Z,100926.96
2018-03-17T11:12:55.514Z,100936.92
2018-03-17T11:15:21.480Z,100930.28
2018-03-17T11:17:47.308Z,100929.89
2018-03-17T11:20:13.175Z,100917.60
2018-03-17T11:22:39.004Z,100927.12
2018-03-17T11:25:04.827Z,100920.83
2018-03-17T11:27:30.648Z,100914.41
2018-03-17T11:29:56.468Z,100900.09
2018-03-17T11:32:22.449Z,100917.71
2018-03-17T11:34:48.310Z,100909.67
2018-03-17T11:37:14.129Z,100908.64
2018-03-17T11:39:40.919Z,100914.78
2018-03-17T11:42:06.742Z,100910.05
2018-03-17T11:44:32.557Z,100912.52
2018-03-17T11:46:58.407Z,100911.05
2018-03-17T11:49:24.244Z,100917.55
2018-03-17T11:51:50.063Z,100907.71
2018-03-17T11:54:15.920Z,100899.23
2018-03-17T11:56:41.742Z,100900.77
2018-03-17T11:59:07.608Z,100895.59
2018-03-17T12:01:33.490Z,100894.49
2018-03-17T12:04:00.189Z,100882.52
2018-03-17T12:06:26.013Z,100887.94
2018-03-17T12:08:51.840Z,100878.31
2018-03-17T12:11:17.667Z,100873.56
2018-03-17T12:13:43.482Z,100878.52
2018-03-17T12:16:09.357Z,100877.37
2018-03-17T12:18:35.225Z,100853.50
2018-03-17T12:21:01.057Z,100865.86
2018-03-17T12:23:26.916Z,100871.83
2018-03-17T12:25:52.747Z,100869.39
2018-03-17T12:28:18.607Z,100864.84
2018-03-17T12:30:44.435Z,100863.58
2018-03-17T12:33:10.298Z,100860.84
2018-03-17T12:35:36.210Z,100856.41
2018-03-17T12:38:02.042Z,100872.49
2018-03-17T12:40:27.928Z,100858.17
2018-03-17T12:42:53.743Z,100846.53
2018-03-17T12:45:19.565Z,100860.58
2018-03-17T12:47:45.393Z,100838.05
2018-03-17T12:50:11.226Z,100840.86
2018-03-17T12:52:37.098Z,100843.45
2018-03-17T12:55:02.961Z,100848.30
2018-03-17T12:57:28.782Z,100848.72
2018-03-17T12:59:54.608Z,100843.34
2018-03-17T13:02:20.439Z,100842.27
2018-03-17T13:04:46.262Z,100834.27
2018-03-17T13:07:12.096Z,100840.26
2018-03-17T13:09:37.919Z,100839.91
2018-03-17T13:12:03.752Z,100844.55
2018-03-17T13:14:29.566Z,100847.61
2018-03-17T13:16:55.394Z,100843.31
2018-03-17T13:19:27.395Z,100842.81
2018-03-17T13:21:53.206Z,100840.20
2018-03-17T13:24:19.062Z,100847.48
2018-03-17T13:26:51.100Z,100844.69
2018-03-17T13:29:16.925Z,100847.98
2018-03-17T13:31:42.755Z,100847.05
2018-03-17T13:34:08.596Z,100846.63
2018-03-17T13:36:40.580Z,100843.64
2018-03-17T13:39:06.407Z,100847.28
2018-03-17T13:41:32.226Z,100841.20
2018-03-17T13:43:58.050Z,100843.10
2018-03-17T13:46:23.906Z,100835.66
2018-03-17T13:48:49.744Z,100837.48
2018-03-17T13:51:15.582Z,100850.85
2018-03-17T13:53:41.420Z,100841.01
2018-03-17T13:56:07.250Z,100849.77
2018-03-17T13:58:33.070Z,100860.59
2018-03-17T14:00:58.896Z,100854.84
2018-03-17T14:03:24.719Z,100848.49
2018-03-17T14:05:50.563Z,100857.45
2018-03-17T14:08:16.395Z,100860.41
2018-03-17T14:10:42.214Z,100866.81
2018-03-17T14:13:08.202Z,100861.08
2018-03-17T14:15:34.063Z,100843.66
2018-03-17T14:17:59.899Z,100856.03
2018-03-17T14:20:25.723Z,100853.22
2018-03-17T14:22:51.541Z,100866.04
2018-03-17T14:25:17.368Z,100850.14
2018-03-17T14:27:43.212Z,100870.66
2018-03-17T14:30:09.043Z,100857.69
2018-03-17T14:32:34.911Z,100874.52
2018-03-17T14:35:00.732Z,100876.97
2018-03-17T14:37:26.601Z,100880.34
2018-03-17T14:39:52.427Z,100859.52
2018-03-17T14:42:18.252Z,100866.74
2018-03-17T14:44:44.085Z,100866.80
2018-03-17T14:47:09.905Z,100865.70
2018-03-17T14:49:35.732Z,100863.45
2018-03-17T14:52:01.560Z,100862.30
2018-03-17T14:54:27.389Z,100872.69
2018-03-17T14:56:53.219Z,100863.53
2018-03-17T14:59:19.040Z,100863.66
2018-03-17T15:01:44.860Z,100860.55
2018-03-17T15:04:10.691Z,100875.19
2018-03-17T15:06:36.510Z,100865.08
2018-03-17T15:09:02.419Z,100864.13
2018-03-17T15:11:28.256Z,100872.27
2018-03-17T15:13:54.985Z,100870.24
2018-03-17T15:16:20.808Z,100863.54
2018-03-17T15:18:46.664Z,100869.33
2018-03-17T15:21:12.524Z,100867.91
2018-03-17T15:23:38.396Z,100863.72
2018-03-17T15:26:04.218Z,100876.55
2018-03-17T15:28:30.060Z,100869.27
2018-03-17T15:30:55.880Z,100868.13
2018-03-17T15:33:21.770Z,100872.02
2018-03-17T15:35:47.599Z,100864.66
2018-03-17T15:38:13.452Z,100864.88
2018-03-17T15:40:39.319Z,100867.64
2018-03-17T15:43:05.179Z,100863.34
2018-03-17T15:45:31.016Z,100874.89
2018-03-17T15:47:56.882Z,100867.56
2018-03-17T15:50:22.703Z,100861.10
2018-03-17T15:52:48.555Z,100873.36
2018-03-17T15:55:14.385Z,100871.41
2018-03-17T15:57:40.206Z,100861.52
2018-03-17T16:00:06.041Z,100872.05
2018-03-17T16:02:31.901Z,100868.49
2018-03-17T16:04:57.758Z,100884.53
2018-03-17T16:07:23.592Z,100883.02
2018-03-17T16:09:49.412Z,100868.34
2018-03-17T16:12:15.233Z,100879.70
2018-03-17T16:14:41.055Z,100887.20
2018-03-17T16:17:13.883Z,100878.98
2018-03-17T16:19:39.705Z,100882.68
2018-03-17T16:22:05.531Z,100881.25
2018-03-17T16:24:31.361Z,100879.55
2018-03-17T16:26:57.226Z,100882.20
2018-03-17T16:29:23.059Z,100879.99
2018-03-17T16:31:48.928Z,100886.38
2018-03-17T16:34:14.746Z,100889.38
2018-03-17T16:36:40.598Z,100890.51
2018-03-17T16:39:06.431Z,100888.00
2018-03-17T16:41:32.254Z,100899.75
2018-03-17T16:43:58.110Z,100898.48
2018-03-17T16:46:23.956Z,100899.64
2018-03-17T16:48:49.827Z,100907.88
2018-03-17T16:51:15.673Z,100915.71
2018-03-17T16:53:41.513Z,100916.06
2018-03-17T16:56:07.344Z,100923.41
2018-03-17T16:58:33.212Z,100919.86
2018-03-17T17:00:59.031Z,100921.72
2018-03-17T17:03:24.872Z,100928.20
2018-03-17T17:05:50.705Z,100927.20
2018-03-17T17:08:16.530Z,100932.50
2018-03-17T17:10:42.365Z,100931.56
2018-03-17T17:13:08.241Z,100927.69
2018-03-17T17:15:34.100Z,100935.41
2018-03-17T17:17:59.938Z,100932.56
2018-03-17T17:20:25.768Z,100935.59
2018-03-17T17:22:51.588Z,100937.39
2018-03-17T17:25:17.448Z,100933.36
2018-03-17T17:27:43.293Z,100941.52
2018-03-17T17:30:09.112Z,100930.84
2018-03-17T17:32:34.989Z,100939.19
2018-03-17T17:35:00.786Z,100938.17
2018-03-17T17:37:26.603Z,100940.08
2018-03-17T17:39:52.424Z,100934.10
2018-03-17T17:42:18.242Z,100950.93
2018-03-17T17:44:44.074Z,100942.37
2018-03-17T17:47:09.919Z,100952.34
2018-03-17T17:49:35.739Z,100947.80
2018-03-17T17:52:01.568Z,100954.89
2018-03-17T17:54:27.387Z,100954.92
2018-03-17T17:56:53.213Z,100945.61
2018-03-17T17:59:19.034Z,100969.36
2018-03-17T18:01:44.855Z,100950.52
2018-03-17T18:04:10.677Z,100929.05
2018-03-17T18:06:36.496Z,100954.28
2018-03-17T18:09:02.407Z,100954.64
2018-03-17T18:11:28.227Z,100961.53
2018-03-17T18:13:54.039Z,100970.13
2018-03-17T18:16:19.868Z,100956.61
2018-03-17T18:18:45.693Z,100945.19
2018-03-17T18:21:11.544Z,100948.86
2018-03-17T18:23:37.375Z,100944.09
2018-03-17T18:26:03.226Z,100962.41
2018-03-17T18:28:29.055Z,100955.14
2018-03-17T18:30:54.877Z,100955.66
2018-03-17T18:33:20.702Z,100965.69
2018-03-17T18:35:46.559Z,100967.95
2018-03-17T18:38:12.383Z,100968.45
2018-03-17T18:40:39.234Z,100963.60
2018-03-17T18:43:05.099Z,100966.06
2018-03-17T18:45:30.919Z,100964.22
2018-03-17T18:47:56.740Z,100983.95
2018-03-17T18:50:22.556Z,100978.19
2018-03-17T18:52:48.371Z,100972.55
2018-03-17T18:55:14.196Z,100975.45
2018-03-17T18:57:40.022Z,100986.59
2018-03-17T19:00:05.884Z,100988.60
2018-03-17T19:02:31.704Z,100982.14
2018-03-17T19:04:57.522Z,100989.91
2018-03-17T19:07:23.383Z,100992.00
2018-03-17T19:09:49.287Z,100994.74
2018-03-17T19:12:15.164Z,100984.64
2018-03-17T19:14:41.007Z,100982.34
2018-03-17T19:17:06.831Z,100982.53
2018-03-17T19:19:33.359Z,100987.13
2018-03-17T19:21:59.188Z,100997.12
2018-03-17T19:24:25.014Z,100992.23
2018-03-17T19:26:50.890Z,100990.94
2018-03-17T19:29:16.704Z,101004.16
2018-03-17T19:31:42.528Z,101003.61
2018-03-17T19:34:08.436Z,101003.19
2018-03-17T19:36:34.274Z,100996.30
2018-03-17T19:39:00.151Z,101008.73
2018-03-17T19:41:26.015Z,100985.91
2018-03-17T19:43:51.857Z,101006.54
2018-03-17T19:46:17.703Z,101012.33
2018-03-17T19:48:43.610Z,101013.59
2018-03-17T19:51:09.452Z,101007.27
2018-03-17T19:53:35.335Z,101010.73
2018-03-17T19:56:02.090Z,101009.25
2018-03-17T19:58:27.973Z,101018.85
2018-03-17T20:00:54.627Z,101018.33
2018-03-17T20:03:20.502Z,101010.72
2018-03-17T20:05:46.356Z,101014.40
2018-03-17T20:08:12.196Z,101016.69
2018-03-17T20:10:38.040Z,101015.25
2018-03-17T20:13:03.896Z,101020.33
2018-03-17T20:15:29.739Z,101013.96
2018-03-17T20:17:55.586Z,101028.85
2018-03-17T20:20:21.467Z,101020.16
2018-03-17T20:22:48.182Z,101017.44
2018-03-17T20:25:14.847Z,101024.36
2018-03-17T20:27:41.788Z,101027.30
2018-03-17T20:30:07.796Z,101033.72
2018-03-17T20:32:33.763Z,101027.09
2018-03-17T20:34:59.658Z,101025.61
2018-03-17T20:37:26.608Z,101035.06
2018-03-17T20:39:52.442Z,101036.63
2018-03-17T20:42:18.280Z,101033.91
2018-03-17T20:44:44.132Z,101049.05
2018-03-17T20:47:09.977Z,101045.72
2018-03-17T20:49:35.827Z,101031.08
2018-03-17T20:52:01.664Z,101038.80
2018-03-17T20:54:27.503Z,101036.44
2018-03-17T20:56:53.889Z,101044.52
2018-03-17T20:59:20.568Z,101042.97
2018-03-17T21:01:46.440Z,101040.56
2018-03-17T21:04:12.331Z,101038.69
2018-03-17T21:06:38.207Z,101043.62
2018-03-17T21:09:04.071Z,101036.53
2018-03-17T21:11:29.906Z,101037.30
2018-03-17T21:13:55.798Z,101032.74
2018-03-17T21:16:21.635Z,101035.91
2018-03-17T21:18:47.471Z,101034.30
2018-03-17T21:21:13.306Z,101045.14
2018-03-17T21:23:39.133Z,101046.00
2018-03-17T21:26:05.029Z,101048.61
2018-03-17T21:28:30.855Z,101055.00
2018-03-17T21:30:56.738Z,101055.59
2018-03-17T21:33:22.576Z,101050.77
2018-03-17T21:35:48.406Z,101034.30
2018-03-17T21:38:14.275Z,101054.64
2018-03-17T21:40:40.142Z,101057.64
2018-03-17T21:43:06.027Z,101064.78
2018-03-17T21:45:31.843Z,101074.13
2018-03-17T21:47:57.661Z,101062.36
2018-03-17T21:50:23.500Z,101056.99
2018-03-17T21:52:49.323Z,101061.73
2018-03-17T21:55:15.139Z,101053.61
2018-03-17T21:57:40.998Z,101064.70
2018-03-17T22:00:06.851Z,101043.54
2018-03-17T22:02:32.671Z,101055.02
2018-03-17T22:04:58.536Z,101057.87
2018-03-17T22:07:24.331Z,101057.69
2018-03-17T22:09:50.183Z,101063.16
2018-03-17T22:12:16.026Z,101065.66
2018-03-17T22:14:41.843Z,101073.58
2018-03-17T22:17:07.650Z,101051.92
2018-03-17T22:19:33.462Z,101064.35
2018-03-17T22:21:59.278Z,101081.41
2018-03-17T22:24:25.090Z,101075.69
2018-03-17T22:26:50.948Z,101069.66
2018-03-17T22:29:16.810Z,101068.45
2018-03-17T22:31:42.618Z,101081.52
2018-03-17T22:34:08.430Z,101074.44
2018-03-17T22:36:34.238Z,101069.83
2018-03-17T22:39:00.043Z,101069.74
2018-03-17T22:41:25.862Z,101072.59
2018-03-17T22:43:51.708Z,101065.17
2018-03-17T22:46:17.517Z,101061.80
2018-03-17T22:48:43.327Z,101067.06
2018-03-17T22:51:09.138Z,101069.97
2018-03-17T22:53:34.958Z,101064.52
2018-03-17T22:56:00.775Z,101063.25
2018-03-17T22:58:27.611Z,101068.92
2018-03-17T23:00:53.458Z,101068.13
2018-03-17T23:03:19.267Z,101080.42
2018-03-17T23:05:45.124Z,101079.17
2018-03-17T23:08:10.944Z,101077.84
2018-03-17T23:10:36.789Z,101092.18
2018-03-17T23:13:02.602Z,101081.98
2018-03-17T23:15:28.426Z,101080.89
2018-03-17T23:17:54.312Z,101090.47
2018-03-17T23:20:20.134Z,101091.34
2018-03-17T23:22:45.991Z,101098.20
2018-03-17T23:25:11.806Z,101099.28
2018-03-17T23:27:37.630Z,101096.52
2018-03-17T23:30:03.521Z,101100.78
2018-03-17T23:32:29.423Z,101101.04
2018-03-17T23:34:55.232Z,101096.58
2018-03-17T23:37:21.056Z,101095.05
2018-03-17T23:39:46.886Z,101101.25
2018-03-17T23:42:12.703Z,101103.41
2018-03-17T23:44:38.533Z,101093.85
2018-03-17T23:47:04.443Z,101096.35
2018-03-17T23:49:30.274Z,101100.98
2018-03-17T23:51:56.147Z,101099.78
2018-03-17T23:54:21.978Z,101103.14
2018-03-17T23:56:47.851Z,101103.70
2018-03-17T23:59:13.728Z,101103.09
